Aérodrome :
LOGIN :

S'inscrire | Disclaimer

   EN    FR    IT 

 










Légende :    VFR   VFR Marginal   IFR   IFR Intensif   IFR Très Intensif
Visi : 
Plafond : 
>= 8 km
>= 3000ft
5 à 8 km
1000 à 3000 ft
1500m à 5 km
500 à 1000 ft
800 à 1500m
200 à 500 ft
< 800m
< 200 ft
Symboles :   Orages  Brouillard  Fortes neiges  Fortes précipitations  Vent > 20 kt
SIGMETs :   Divers  Orages  Givrage  Turbulence  Onde Orograph.  Cendres Volcan.







- Altitude de l'aérodrome : 499 ft
- Code IATA : TLS
- Voir les cartes d'approche


LFBO - Toulouse / Blagnac

DERNIER METAR :
  • 151130Z AUTO 14015KT 9999 FEW012 19/13 Q1020 NOSIG

METARs EXPIRÉS :
  • 151100Z AUTO 14017KT 9999 FEW021 19/13 Q1020 NOSIG
  • 151030Z AUTO 15018KT 9999 FEW021 19/13 Q1020 NOSIG
  • 151000Z AUTO 14015KT 110V170 9999 SCT019 18/14 Q1020 NOSIG
  • 150930Z AUTO 14013KT 110V170 9999 BKN018 18/13 Q1020 NOSIG
  • 150900Z AUTO 14012KT 9999 BKN017 17/13 Q1020 NOSIG

TAF TAF LFBO
Valide du 15 à 12h jusqu'au 16 à 18h UTC


151100Z 1512/1618 14013KT 9999 SCT020
BECMG 1517/1519 BKN020
BECMG 1521/1523 09003KT
PROB30
TEMPO 1601/1607 BKN012
BECMG 1609/1611 14010KT SCT020
BECMG 1611/1613 CAVOK
ATIS : +33 5 62 74 66 36
Pas de NOTAMs connus pour ce terrain.



MET'MAP, la Météo Aéronautique d'un coup d'oeil ! - Copyright ORBIFLY Décembre 2007 - Disclaimer

ORBIFLY MET'MAP TEAM :

Programmation & Développement : Alexandra Zaïnal
Conception & Développement : Baudouin d'Aumeries
Co-Programmation & Développement : Marc-Olivier Méhu
Soutien technique & logistique : Manuel Goepfert

Contact : metmap@orbifly.com




SOURCES & CREDITS :

   NOAA